Time;durP1;ratioP1;P1;durP2;ratioP2;P2;SDS_P1;SDS_P2;PMS_P1;PMS_P2;Temp;Humidity;BMP_temperature;BMP_pressure;BME280_temperature;BME280_humidity;BME280_pressure;Samples;Min_cycle;Max_cycle;Signal;HPM_P1;HPM_P2
2023/05/25 00:02:23;;;;;;;;;;;15.00;96.20;;;;;;5105919;28;19918;-66
2023/05/25 00:04:50;;;;;;;;;;;15.00;96.20;;;;;;5102660;28;19912;-66
2023/05/25 00:07:17;;;;;;;;;;;15.10;96.50;;;;;;5112759;28;19970;-66
2023/05/25 00:09:45;;;;;;;;;;;15.30;96.50;;;;;;5109269;28;20015;-66
2023/05/25 00:12:12;;;;;;;;;;;15.40;96.10;;;;;;5108805;28;20015;-67
2023/05/25 00:14:38;;;;;;;;;;;15.50;95.80;;;;;;5112079;28;20384;-63
2023/05/25 00:17:08;;;;;;;;;;;15.60;95.90;;;;;;5097681;28;19938;-65
2023/05/25 00:19:35;;;;;;;;;;;15.70;95.50;;;;;;5094858;28;19912;-66
2023/05/25 00:22:02;;;;;;;;;;;15.80;95.20;;;;;;5094451;28;19943;-66
2023/05/25 00:24:29;;;;;;;;;;;15.80;95.20;;;;;;5095067;28;19921;-66
2023/05/25 00:26:57;;;;;;;;;;;16.00;95.20;;;;;;5104192;28;19922;-66
2023/05/25 00:29:24;;;;;;;;;;;16.20;94.90;;;;;;5094751;28;19916;-67
2023/05/25 00:31:51;;;;;;;;;;;16.40;94.60;;;;;;5101011;28;19922;-65
2023/05/25 00:34:18;;;;;;;;;;;16.60;94.20;;;;;;5112179;28;19915;-65
2023/05/25 00:36:48;;;;;;;;;;;16.80;93.20;;;;;;5109112;28;19915;-67
2023/05/25 00:39:15;;;;;;;;;;;16.80;92.80;;;;;;5106953;28;19970;-67
2023/05/25 00:41:43;;;;;;;;;;;16.90;92.20;;;;;;5110395;28;19964;-67
2023/05/25 00:44:10;;;;;;;;;;;16.90;92.00;;;;;;5108992;28;19919;-65
2023/05/25 00:46:38;;;;;;;;;;;17.00;91.70;;;;;;5106513;28;19916;-66
2023/05/25 00:49:08;;;;;;;;;;;17.10;92.20;;;;;;5099039;28;20296;-66
2023/05/25 00:51:35;;;;;;;;;;;17.20;92.90;;;;;;5097633;28;19919;-65
2023/05/25 00:54:01;;;;;;;;;;;17.30;92.80;;;;;;5098195;28;19911;-67
2023/05/25 00:56:30;;;;;;;;;;;17.40;92.30;;;;;;5092698;28;19908;-66
2023/05/25 00:58:59;;;;;;;;;;;17.50;92.70;;;;;;5112824;28;20361;-66
2023/05/25 01:01:26;;;;;;;;;;;17.60;92.40;;;;;;5113352;28;19970;-67
2023/05/25 01:03:54;;;;;;;;;;;17.70;92.10;;;;;;5105175;28;19916;-65
2023/05/25 01:06:22;;;;;;;;;;;17.80;92.10;;;;;;5110317;28;20276;-64
2023/05/25 01:08:55;;;;;;;;;;;17.80;91.80;;;;;;5108425;28;19933;-65
2023/05/25 01:11:26;;;;;;;;;;;17.90;91.80;;;;;;5112580;28;19908;-66
2023/05/25 01:13:53;;;;;;;;;;;18.10;92.20;;;;;;5105060;28;20340;-65
2023/05/25 01:16:20;;;;;;;;;;;18.20;91.40;;;;;;5093313;28;20613;-64
2023/05/25 01:18:47;;;;;;;;;;;18.30;91.10;;;;;;5109012;28;19932;-66
2023/05/25 01:21:20;;;;;;;;;;;18.50;91.70;;;;;;5109349;28;20284;-65
2023/05/25 01:23:52;;;;;;;;;;;18.60;91.30;;;;;;5107391;28;19919;-67
2023/05/25 01:26:20;;;;;;;;;;;18.80;91.60;;;;;;5106725;28;19920;-68
2023/05/25 01:28:50;;;;;;;;;;;19.00;91.10;;;;;;5110259;28;20421;-66
2023/05/25 01:31:18;;;;;;;;;;;19.00;90.40;;;;;;5111983;28;19914;-66
2023/05/25 01:33:44;;;;;;;;;;;19.20;89.20;;;;;;5110840;28;19919;-67
2023/05/25 01:36:11;;;;;;;;;;;19.40;90.20;;;;;;5110495;28;20383;-66
2023/05/25 01:38:38;;;;;;;;;;;19.40;90.50;;;;;;5110376;28;19943;-66
2023/05/25 01:41:05;;;;;;;;;;;19.60;90.00;;;;;;5105239;28;19919;-67
2023/05/25 01:43:32;;;;;;;;;;;19.80;90.20;;;;;;5107277;28;20044;-67
2023/05/25 01:46:04;;;;;;;;;;;19.80;86.90;;;;;;5102612;28;20390;-65
2023/05/25 01:48:45;;;;;;;;;;;20.00;87.10;;;;;;5093084;28;19916;-66
2023/05/25 01:51:25;;;;;;;;;;;20.30;87.50;;;;;;5109447;28;19956;-65
2023/05/25 01:53:53;;;;;;;;;;;20.50;85.60;;;;;;5103416;28;19919;-65
2023/05/25 01:56:22;;;;;;;;;;;20.50;85.30;;;;;;5109351;28;20046;-65
2023/05/25 01:58:49;;;;;;;;;;;20.60;85.40;;;;;;5110634;28;19998;-65
2023/05/25 02:01:17;;;;;;;;;;;20.70;84.70;;;;;;5110689;28;20386;-65
2023/05/25 02:03:47;;;;;;;;;;;20.80;85.20;;;;;;5105873;28;20277;-65
2023/05/25 02:06:15;;;;;;;;;;;20.90;83.50;;;;;;5098536;28;19916;-66
2023/05/25 02:08:43;;;;;;;;;;;20.90;83.00;;;;;;5112957;28;20368;-65
2023/05/25 02:11:09;;;;;;;;;;;20.70;83.80;;;;;;5114643;28;19911;-64
2023/05/25 02:13:36;;;;;;;;;;;20.70;83.80;;;;;;5109368;28;19918;-66
2023/05/25 02:16:02;;;;;;;;;;;20.60;84.70;;;;;;5113420;28;20473;-66
2023/05/25 02:18:29;;;;;;;;;;;20.60;85.00;;;;;;5113208;28;20007;-67
2023/05/25 02:20:56;;;;;;;;;;;20.70;84.60;;;;;;5111388;28;19918;-65
2023/05/25 02:23:23;;;;;;;;;;;20.60;83.90;;;;;;5109534;28;19920;-66
2023/05/25 02:25:50;;;;;;;;;;;20.60;84.90;;;;;;5113115;28;19912;-66
2023/05/25 02:28:17;;;;;;;;;;;20.60;84.60;;;;;;5115018;28;19924;-67
2023/05/25 02:30:44;;;;;;;;;;;20.70;84.80;;;;;;5111878;28;19916;-66
2023/05/25 02:33:10;;;;;;;;;;;20.70;85.10;;;;;;5100235;28;20407;-65
2023/05/25 02:35:37;;;;;;;;;;;20.70;84.70;;;;;;5110311;28;20352;-66
2023/05/25 02:38:04;;;;;;;;;;;20.70;83.80;;;;;;5108880;28;19934;-67
2023/05/25 02:40:31;;;;;;;;;;;20.70;84.00;;;;;;5112672;28;19911;-65
2023/05/25 02:42:57;;;;;;;;;;;20.70;84.50;;;;;;5104068;28;19920;-65
2023/05/25 02:45:24;;;;;;;;;;;20.70;85.00;;;;;;5110238;28;20309;-65
2023/05/25 02:47:50;;;;;;;;;;;20.70;86.00;;;;;;5111900;28;19927;-65
2023/05/25 02:50:17;;;;;;;;;;;20.60;87.10;;;;;;5100629;28;19919;-64
2023/05/25 02:52:44;;;;;;;;;;;20.50;87.30;;;;;;5110481;28;19916;-66
2023/05/25 02:55:12;;;;;;;;;;;20.40;87.30;;;;;;5110361;28;19907;-65
2023/05/25 02:57:38;;;;;;;;;;;20.30;88.40;;;;;;5115540;28;19908;-66
2023/05/25 03:00:11;;;;;;;;;;;20.10;88.90;;;;;;5114977;28;20276;-66
2023/05/25 03:02:37;;;;;;;;;;;20.10;88.90;;;;;;5115504;28;19914;-65
2023/05/25 03:05:05;;;;;;;;;;;20.00;90.10;;;;;;5114310;28;19907;-65
2023/05/25 03:07:31;;;;;;;;;;;19.90;89.70;;;;;;5114827;28;20415;-65
2023/05/25 03:09:58;;;;;;;;;;;19.80;89.70;;;;;;5114926;28;19943;-65
2023/05/25 03:12:25;;;;;;;;;;;19.80;88.30;;;;;;5109989;28;19930;-66
2023/05/25 03:14:51;;;;;;;;;;;19.70;87.50;;;;;;5099795;28;20427;-65
2023/05/25 03:17:18;;;;;;;;;;;19.60;87.80;;;;;;5113142;28;20010;-66
2023/05/25 03:19:44;;;;;;;;;;;19.70;89.30;;;;;;5115182;28;20138;-66
2023/05/25 03:22:11;;;;;;;;;;;19.60;90.50;;;;;;5115153;28;19990;-65
2023/05/25 03:24:43;;;;;;;;;;;19.60;90.80;;;;;;5109656;28;19912;-66
2023/05/25 03:27:10;;;;;;;;;;;19.50;91.30;;;;;;5112875;28;19920;-66
2023/05/25 03:29:37;;;;;;;;;;;19.50;91.20;;;;;;5113024;28;19965;-66
2023/05/25 03:32:04;;;;;;;;;;;19.40;91.30;;;;;;5098914;28;20060;-66
2023/05/25 03:34:33;;;;;;;;;;;19.40;91.70;;;;;;5106048;28;20677;-65
2023/05/25 03:37:00;;;;;;;;;;;19.30;91.70;;;;;;5096327;28;20353;-66
2023/05/25 03:39:26;;;;;;;;;;;19.30;91.90;;;;;;5107082;28;19951;-65
2023/05/25 03:41:54;;;;;;;;;;;19.20;92.20;;;;;;5105345;28;20010;-65
2023/05/25 03:44:20;;;;;;;;;;;19.20;92.50;;;;;;5107909;28;19919;-65
2023/05/25 03:46:47;;;;;;;;;;;19.20;92.90;;;;;;5110452;28;19916;-65
2023/05/25 03:49:14;;;;;;;;;;;19.20;93.10;;;;;;5112754;28;19919;-65
2023/05/25 03:51:40;;;;;;;;;;;19.20;92.80;;;;;;5112873;28;19911;-64
2023/05/25 03:54:07;;;;;;;;;;;19.20;92.50;;;;;;5106845;28;19954;-64
2023/05/25 03:56:34;;;;;;;;;;;19.30;92.70;;;;;;5105354;28;20302;-64
2023/05/25 03:59:01;;;;;;;;;;;19.20;92.30;;;;;;5107276;28;20411;-65
2023/05/25 04:01:28;;;;;;;;;;;19.20;92.70;;;;;;5112344;28;19935;-64
2023/05/25 04:03:56;;;;;;;;;;;19.20;91.90;;;;;;5106415;28;20396;-64
2023/05/25 04:06:24;;;;;;;;;;;19.30;91.50;;;;;;5108217;28;19963;-65
2023/05/25 04:08:51;;;;;;;;;;;19.30;91.50;;;;;;5113427;28;20431;-64
2023/05/25 04:11:18;;;;;;;;;;;19.40;90.60;;;;;;5113686;28;19951;-65
2023/05/25 04:13:45;;;;;;;;;;;19.30;90.30;;;;;;5113746;28;19911;-65
2023/05/25 04:16:12;;;;;;;;;;;19.30;90.00;;;;;;5103847;28;19919;-65
2023/05/25 04:18:38;;;;;;;;;;;19.30;90.30;;;;;;5114079;28;20450;-64
2023/05/25 04:21:05;;;;;;;;;;;19.20;90.20;;;;;;5112411;28;20022;-64
2023/05/25 04:23:32;;;;;;;;;;;19.10;90.00;;;;;;5108888;28;19915;-65
2023/05/25 04:25:59;;;;;;;;;;;19.00;90.30;;;;;;5112855;28;19916;-65
2023/05/25 04:28:27;;;;;;;;;;;19.10;90.20;;;;;;5113379;28;19919;-65
2023/05/25 04:30:56;;;;;;;;;;;18.90;89.80;;;;;;5110772;28;19951;-66
2023/05/25 04:33:23;;;;;;;;;;;18.90;90.40;;;;;;5106198;28;19912;-65
2023/05/25 04:35:50;;;;;;;;;;;18.90;89.40;;;;;;5093921;28;19916;-65
2023/05/25 04:38:16;;;;;;;;;;;18.90;89.00;;;;;;5105499;28;20375;-65
2023/05/25 04:40:46;;;;;;;;;;;18.90;89.20;;;;;;5109064;28;19912;-66
2023/05/25 04:43:16;;;;;;;;;;;19.00;89.10;;;;;;5113030;28;19912;-66
2023/05/25 04:45:44;;;;;;;;;;;19.10;88.40;;;;;;5107277;28;20003;-65
2023/05/25 04:48:11;;;;;;;;;;;19.20;89.00;;;;;;5111687;28;19970;-65
2023/05/25 04:50:41;;;;;;;;;;;19.40;88.40;;;;;;5112515;28;19911;-65
2023/05/25 04:53:08;;;;;;;;;;;19.50;88.10;;;;;;5111789;28;19911;-65
2023/05/25 04:55:35;;;;;;;;;;;19.70;86.70;;;;;;5101235;28;19912;-65
2023/05/25 04:58:02;;;;;;;;;;;19.90;87.00;;;;;;5112644;28;20437;-66
2023/05/25 05:00:28;;;;;;;;;;;19.90;86.50;;;;;;5097745;28;19918;-66
2023/05/25 05:02:58;;;;;;;;;;;19.90;84.60;;;;;;5107484;28;19999;-65
2023/05/25 05:05:24;;;;;;;;;;;19.80;85.50;;;;;;5112142;28;19951;-66
2023/05/25 05:07:52;;;;;;;;;;;19.70;85.30;;;;;;5112912;28;20018;-66
2023/05/25 05:10:19;;;;;;;;;;;19.70;86.10;;;;;;5112665;28;19947;-65
2023/05/25 05:12:46;;;;;;;;;;;19.60;86.40;;;;;;5112709;28;20275;-65
2023/05/25 05:15:12;;;;;;;;;;;19.50;87.20;;;;;;5108230;28;19907;-66
2023/05/25 05:17:39;;;;;;;;;;;19.40;87.30;;;;;;5112508;28;19907;-66
2023/05/25 05:20:06;;;;;;;;;;;19.30;87.10;;;;;;5111571;28;19912;-65
2023/05/25 05:22:33;;;;;;;;;;;19.20;87.80;;;;;;5110351;28;19915;-67
2023/05/25 05:25:00;;;;;;;;;;;19.10;87.00;;;;;;5098069;28;19961;-66
2023/05/25 05:27:27;;;;;;;;;;;19.10;88.00;;;;;;5110673;28;19967;-67
2023/05/25 05:29:54;;;;;;;;;;;19.00;88.50;;;;;;5112017;28;19908;-67
2023/05/25 05:32:20;;;;;;;;;;;18.90;88.90;;;;;;5110761;28;19916;-67
2023/05/25 05:34:47;;;;;;;;;;;18.90;89.70;;;;;;5110610;28;19908;-67
2023/05/25 05:37:14;;;;;;;;;;;18.80;90.00;;;;;;5111301;28;19995;-66
2023/05/25 05:39:40;;;;;;;;;;;18.70;89.60;;;;;;5106624;28;19916;-66
2023/05/25 05:42:08;;;;;;;;;;;18.70;90.30;;;;;;5098473;28;19920;-64
2023/05/25 05:44:35;;;;;;;;;;;18.60;90.10;;;;;;5109961;28;19972;-65
2023/05/25 05:47:02;;;;;;;;;;;18.50;90.30;;;;;;5084338;28;20318;-66
2023/05/25 05:49:29;;;;;;;;;;;18.50;90.50;;;;;;5111439;28;19987;-65
2023/05/25 05:51:56;;;;;;;;;;;18.40;91.00;;;;;;5110917;28;19908;-67
2023/05/25 05:54:22;;;;;;;;;;;18.30;90.90;;;;;;5111709;28;19911;-65
2023/05/25 05:56:49;;;;;;;;;;;18.20;90.80;;;;;;5100029;28;19968;-66
2023/05/25 05:59:16;;;;;;;;;;;18.10;91.20;;;;;;5111359;28;20287;-65
2023/05/25 06:01:43;;;;;;;;;;;18.00;91.30;;;;;;5110619;28;19919;-66
2023/05/25 06:04:09;;;;;;;;;;;17.90;91.70;;;;;;5111019;28;19908;-65
2023/05/25 06:06:37;;;;;;;;;;;17.70;92.10;;;;;;5111626;28;19915;-65
2023/05/25 06:09:05;;;;;;;;;;;17.70;92.60;;;;;;5110909;28;19927;-66
2023/05/25 06:11:34;;;;;;;;;;;17.50;92.50;;;;;;5094489;28;19916;-65
2023/05/25 06:14:01;;;;;;;;;;;17.40;92.60;;;;;;5106642;28;20275;-67
2023/05/25 06:16:28;;;;;;;;;;;17.30;93.10;;;;;;5110725;28;19907;-66
2023/05/25 06:18:54;;;;;;;;;;;17.20;93.20;;;;;;5091280;28;20284;-65
2023/05/25 06:21:21;;;;;;;;;;;17.10;93.60;;;;;;5097531;28;19998;-65
2023/05/25 06:23:47;;;;;;;;;;;17.00;93.90;;;;;;5105608;28;19919;-65
2023/05/25 06:26:14;;;;;;;;;;;16.90;94.10;;;;;;5091665;28;19915;-67
2023/05/25 06:28:41;;;;;;;;;;;16.90;94.00;;;;;;5090638;28;19915;-66
2023/05/25 06:31:08;;;;;;;;;;;16.70;94.00;;;;;;5090273;28;20284;-66
2023/05/25 06:33:34;;;;;;;;;;;16.70;94.50;;;;;;5090312;28;19916;-67
2023/05/25 06:36:01;;;;;;;;;;;16.60;94.80;;;;;;5090221;28;19912;-67
2023/05/25 06:38:28;;;;;;;;;;;16.50;95.20;;;;;;5092379;28;19915;-67
2023/05/25 06:40:55;;;;;;;;;;;16.40;95.80;;;;;;5110335;28;19969;-66
2023/05/25 06:43:21;;;;;;;;;;;16.40;95.70;;;;;;5107233;28;20272;-66
2023/05/25 06:45:49;;;;;;;;;;;16.30;95.90;;;;;;5090870;28;19933;-65
2023/05/25 06:48:15;;;;;;;;;;;16.20;95.80;;;;;;5091054;28;19923;-66
2023/05/25 06:50:42;;;;;;;;;;;16.10;95.90;;;;;;5091286;28;20331;-66
2023/05/25 06:53:10;;;;;;;;;;;16.10;95.20;;;;;;5078214;28;19916;-65
2023/05/25 06:55:36;;;;;;;;;;;16.00;94.80;;;;;;5112229;28;20359;-66
2023/05/25 06:58:03;;;;;;;;;;;16.00;95.30;;;;;;5112065;28;19911;-67
2023/05/25 07:00:30;;;;;;;;;;;16.00;95.30;;;;;;5113078;28;19908;-66
2023/05/25 07:02:56;;;;;;;;;;;15.90;95.10;;;;;;5114330;28;19912;-64
2023/05/25 07:05:23;;;;;;;;;;;15.90;94.60;;;;;;5113568;28;20319;-66
2023/05/25 07:07:49;;;;;;;;;;;15.90;93.80;;;;;;5112360;28;19916;-66
2023/05/25 07:10:16;;;;;;;;;;;15.90;93.90;;;;;;5104476;28;19912;-66
2023/05/25 07:12:43;;;;;;;;;;;16.00;94.00;;;;;;5106159;28;20007;-64
2023/05/25 07:15:10;;;;;;;;;;;15.90;93.60;;;;;;5105078;28;20514;-65
2023/05/25 07:17:37;;;;;;;;;;;15.90;93.70;;;;;;5113971;28;19943;-66
2023/05/25 07:20:04;;;;;;;;;;;16.00;93.40;;;;;;5111964;28;19959;-64
2023/05/25 07:22:31;;;;;;;;;;;15.90;93.50;;;;;;5113620;28;19994;-64
2023/05/25 07:24:58;;;;;;;;;;;15.90;93.60;;;;;;5108501;28;19908;-63
2023/05/25 07:27:24;;;;;;;;;;;15.90;93.60;;;;;;5114056;28;19919;-65
2023/05/25 07:29:51;;;;;;;;;;;15.80;93.60;;;;;;5114102;28;19907;-64
2023/05/25 07:32:18;;;;;;;;;;;15.90;94.00;;;;;;5109954;28;20380;-65
2023/05/25 07:34:44;;;;;;;;;;;15.80;94.10;;;;;;5107045;28;19964;-63
2023/05/25 07:37:11;;;;;;;;;;;15.60;94.20;;;;;;5111815;28;19908;-66
2023/05/25 07:39:39;;;;;;;;;;;15.60;94.60;;;;;;5108140;28;19998;-66
2023/05/25 07:42:06;;;;;;;;;;;15.60;94.70;;;;;;5113531;28;19936;-64
2023/05/25 07:44:32;;;;;;;;;;;15.50;94.00;;;;;;5099848;28;19913;-65
2023/05/25 07:46:59;;;;;;;;;;;15.60;93.40;;;;;;5109252;28;19998;-66
2023/05/25 07:49:25;;;;;;;;;;;15.70;93.60;;;;;;5106433;28;19917;-65
2023/05/25 07:51:52;;;;;;;;;;;15.70;93.60;;;;;;5090911;28;19912;-64
2023/05/25 07:54:19;;;;;;;;;;;15.70;93.70;;;;;;5100376;28;19912;-65
2023/05/25 07:56:45;;;;;;;;;;;15.60;94.10;;;;;;5109005;28;19908;-64
2023/05/25 07:59:13;;;;;;;;;;;15.70;94.10;;;;;;5112008;28;19908;-65
2023/05/25 08:01:39;;;;;;;;;;;15.70;93.60;;;;;;5095802;28;19927;-67
2023/05/25 08:04:06;;;;;;;;;;;15.70;92.80;;;;;;5091967;28;20368;-66
2023/05/25 08:06:33;;;;;;;;;;;15.80;92.10;;;;;;5109129;28;20292;-65
2023/05/25 08:08:59;;;;;;;;;;;15.90;91.20;;;;;;5111734;28;20007;-64
2023/05/25 08:11:26;;;;;;;;;;;16.10;90.50;;;;;;5107493;28;19943;-66
2023/05/25 08:13:53;;;;;;;;;;;16.20;89.20;;;;;;5105564;28;19916;-67
2023/05/25 08:16:19;;;;;;;;;;;16.20;88.40;;;;;;5094684;28;19916;-66
2023/05/25 08:18:46;;;;;;;;;;;16.30;87.30;;;;;;5112602;28;19927;-63
2023/05/25 08:21:13;;;;;;;;;;;16.40;86.50;;;;;;5096316;28;20369;-66
2023/05/25 08:23:41;;;;;;;;;;;16.50;85.80;;;;;;5093627;28;19950;-65
2023/05/25 08:26:11;;;;;;;;;;;16.50;85.40;;;;;;5097087;28;19916;-67
2023/05/25 08:28:37;;;;;;;;;;;16.60;85.70;;;;;;5106631;28;19916;-67
2023/05/25 08:31:04;;;;;;;;;;;16.60;85.50;;;;;;5113330;28;19912;-66
2023/05/25 08:33:31;;;;;;;;;;;16.60;86.10;;;;;;5113384;28;19968;-66
2023/05/25 08:35:58;;;;;;;;;;;16.50;85.60;;;;;;5112845;28;19915;-66
2023/05/25 08:38:24;;;;;;;;;;;16.50;86.00;;;;;;5113131;28;19908;-66
2023/05/25 08:41:11;;;;;;;;;;;16.30;86.00;;;;;;5111176;28;19951;-66
2023/05/25 08:43:37;;;;;;;;;;;16.30;87.80;;;;;;5113286;28;20032;-66
2023/05/25 08:46:05;;;;;;;;;;;16.20;88.80;;;;;;5112855;28;19916;-66
2023/05/25 08:48:36;;;;;;;;;;;16.00;90.00;;;;;;5112923;28;20262;-66
2023/05/25 08:51:09;;;;;;;;;;;15.90;90.30;;;;;;5112951;28;19912;-66
2023/05/25 08:53:37;;;;;;;;;;;15.90;90.80;;;;;;5112766;28;19912;-66
2023/05/25 08:56:07;;;;;;;;;;;15.70;91.10;;;;;;5113004;28;19919;-66
2023/05/25 08:58:39;;;;;;;;;;;15.70;91.80;;;;;;5112537;28;19915;-67
2023/05/25 09:01:07;;;;;;;;;;;15.50;91.80;;;;;;5112824;28;19907;-66
2023/05/25 09:03:35;;;;;;;;;;;15.50;91.80;;;;;;5113522;28;19911;-66
2023/05/25 09:06:01;;;;;;;;;;;15.30;92.40;;;;;;5113123;28;19908;-66
2023/05/25 09:08:29;;;;;;;;;;;15.30;92.80;;;;;;5112896;28;19923;-66
2023/05/25 09:10:56;;;;;;;;;;;15.10;92.60;;;;;;5113217;28;20388;-65
2023/05/25 09:13:23;;;;;;;;;;;15.10;92.90;;;;;;5112549;28;19929;-67
2023/05/25 09:15:51;;;;;;;;;;;15.10;92.80;;;;;;5110014;28;19908;-67
2023/05/25 09:18:18;;;;;;;;;;;15.00;93.00;;;;;;5112615;28;19915;-66
2023/05/25 09:20:45;;;;;;;;;;;15.00;93.30;;;;;;5094730;28;19918;-67
2023/05/25 09:23:12;;;;;;;;;;;15.00;93.20;;;;;;5111684;28;19908;-64
2023/05/25 09:25:40;;;;;;;;;;;14.90;93.50;;;;;;5112725;28;19915;-66
2023/05/25 09:28:09;;;;;;;;;;;14.90;93.40;;;;;;5111246;28;20295;-67
2023/05/25 09:30:36;;;;;;;;;;;14.90;93.30;;;;;;5112773;28;19939;-66
2023/05/25 09:33:12;;;;;;;;;;;14.90;93.40;;;;;;5112964;28;19908;-66
2023/05/25 09:35:39;;;;;;;;;;;14.80;93.50;;;;;;5112798;28;19955;-66
2023/05/25 09:38:06;;;;;;;;;;;14.70;93.70;;;;;;5111813;28;19912;-67
2023/05/25 09:40:34;;;;;;;;;;;14.70;93.40;;;;;;5112151;28;19924;-67
2023/05/25 09:43:04;;;;;;;;;;;14.80;93.10;;;;;;5106743;28;19912;-67
2023/05/25 09:45:30;;;;;;;;;;;14.80;93.30;;;;;;5112121;28;20276;-66
2023/05/25 09:47:58;;;;;;;;;;;14.80;93.20;;;;;;5112493;28;19970;-66
2023/05/25 09:50:28;;;;;;;;;;;14.70;93.20;;;;;;5110601;28;19912;-66
2023/05/25 09:52:58;;;;;;;;;;;14.70;93.10;;;;;;5112428;28;20275;-66
2023/05/25 09:55:28;;;;;;;;;;;14.80;92.70;;;;;;5112341;28;19908;-67
2023/05/25 09:57:56;;;;;;;;;;;14.80;93.00;;;;;;5110937;28;19937;-67
2023/05/25 10:00:23;;;;;;;;;;;14.80;92.70;;;;;;5111942;28;19912;-67
2023/05/25 10:02:50;;;;;;;;;;;14.80;92.70;;;;;;5110586;28;20537;-67
2023/05/25 10:05:17;;;;;;;;;;;14.80;92.20;;;;;;5111676;28;19908;-67
2023/05/25 10:07:44;;;;;;;;;;;14.80;92.40;;;;;;5111350;28;19930;-67
2023/05/25 10:10:17;;;;;;;;;;;14.90;92.90;;;;;;5110748;28;20391;-67
2023/05/25 10:12:44;;;;;;;;;;;14.80;92.80;;;;;;5108166;28;19951;-67
2023/05/25 10:15:11;;;;;;;;;;;14.80;93.10;;;;;;5111227;28;19918;-67
2023/05/25 10:17:41;;;;;;;;;;;14.70;93.10;;;;;;5108557;28;20257;-67
2023/05/25 10:20:08;;;;;;;;;;;14.80;93.30;;;;;;5111803;28;20039;-65
2023/05/25 10:22:47;;;;;;;;;;;14.80;93.10;;;;;;5108802;28;19991;-65
2023/05/25 10:25:20;;;;;;;;;;;14.80;92.60;;;;;;5112150;28;20392;-66
2023/05/25 10:27:47;;;;;;;;;;;14.80;92.60;;;;;;5107253;28;19920;-67
2023/05/25 10:30:15;;;;;;;;;;;14.80;92.90;;;;;;5112143;28;20053;-66
2023/05/25 10:32:42;;;;;;;;;;;14.70;93.00;;;;;;5094060;28;19939;-66
2023/05/25 10:35:09;;;;;;;;;;;14.70;92.40;;;;;;5095283;28;19915;-66
2023/05/25 10:37:39;;;;;;;;;;;14.70;92.30;;;;;;5095278;28;19912;-67
2023/05/25 10:40:09;;;;;;;;;;;14.70;92.30;;;;;;5113827;28;19959;-67
2023/05/25 10:42:37;;;;;;;;;;;14.70;91.70;;;;;;5115699;28;19923;-66
2023/05/25 10:45:04;;;;;;;;;;;14.80;91.90;;;;;;5116013;28;20580;-66
2023/05/25 10:47:31;;;;;;;;;;;14.80;91.60;;;;;;5116363;28;19969;-66
2023/05/25 10:50:01;;;;;;;;;;;14.90;90.50;;;;;;5113440;28;19953;-66
2023/05/25 10:52:31;;;;;;;;;;;15.00;90.10;;;;;;5112975;28;19948;-66
2023/05/25 10:55:03;;;;;;;;;;;15.20;90.00;;;;;;5115654;28;19915;-66
2023/05/25 10:57:30;;;;;;;;;;;15.30;89.20;;;;;;5083843;28;19916;-66
2023/05/25 11:00:09;;;;;;;;;;;15.30;90.00;;;;;;5094904;28;19912;-66
2023/05/25 11:02:54;;;;;;;;;;;15.40;89.00;;;;;;5113957;28;20383;-66
2023/05/25 11:05:29;;;;;;;;;;;15.40;88.00;;;;;;5114481;28;19916;-66
2023/05/25 11:07:57;;;;;;;;;;;15.40;86.60;;;;;;5113762;28;19919;-66
2023/05/25 11:10:42;;;;;;;;;;;15.50;86.20;;;;;;5114761;28;19911;-66
2023/05/25 11:13:27;;;;;;;;;;;15.50;85.20;;;;;;5114641;28;20376;-66
2023/05/25 11:16:12;;;;;;;;;;;15.70;84.90;;;;;;5114513;28;20010;-65
2023/05/25 11:18:42;;;;;;;;;;;15.80;84.90;;;;;;5111626;28;19922;-65
2023/05/25 11:21:17;;;;;;;;;;;15.90;84.50;;;;;;5114260;28;20072;-65
2023/05/25 11:23:56;;;;;;;;;;;15.90;85.00;;;;;;5114680;28;20329;-66
2023/05/25 11:26:24;;;;;;;;;;;16.00;84.20;;;;;;5107936;28;19962;-65
2023/05/25 11:28:52;;;;;;;;;;;15.90;83.60;;;;;;5093081;28;19912;-66
2023/05/25 11:31:22;;;;;;;;;;;16.00;83.40;;;;;;5094980;28;19913;-66
2023/05/25 11:33:56;;;;;;;;;;;16.00;84.80;;;;;;5111994;28;19911;-66
2023/05/25 11:36:23;;;;;;;;;;;16.10;83.80;;;;;;5115501;28;19916;-66
2023/05/25 11:38:51;;;;;;;;;;;16.10;83.10;;;;;;5114356;28;19907;-65
2023/05/25 11:41:18;;;;;;;;;;;16.10;83.10;;;;;;5115455;28;20279;-67
2023/05/25 11:43:45;;;;;;;;;;;16.10;82.90;;;;;;5115340;28;19923;-66
2023/05/25 11:46:12;;;;;;;;;;;16.20;82.00;;;;;;5114928;28;19915;-67
2023/05/25 11:48:43;;;;;;;;;;;16.20;82.20;;;;;;5114577;28;20271;-65
2023/05/25 11:51:10;;;;;;;;;;;16.30;82.60;;;;;;5114909;28;19915;-66
2023/05/25 11:53:45;;;;;;;;;;;16.20;82.40;;;;;;5114586;28;19927;-67
2023/05/25 11:56:16;;;;;;;;;;;16.20;83.10;;;;;;5114539;28;19960;-66
2023/05/25 11:58:48;;;;;;;;;;;16.20;82.80;;;;;;5114313;28;19931;-66
2023/05/25 12:01:22;;;;;;;;;;;16.20;82.70;;;;;;5113975;28;19916;-67
2023/05/25 12:03:49;;;;;;;;;;;16.20;82.00;;;;;;5114817;28;19908;-67
2023/05/25 12:06:30;;;;;;;;;;;16.20;82.00;;;;;;5114052;28;19930;-66
2023/05/25 12:08:57;;;;;;;;;;;16.20;81.80;;;;;;5114362;28;19984;-66
2023/05/25 12:11:30;;;;;;;;;;;16.20;81.90;;;;;;5114144;28;20463;-67
2023/05/25 12:13:58;;;;;;;;;;;16.20;81.20;;;;;;5094107;28;19991;-66
2023/05/25 12:16:25;;;;;;;;;;;16.20;81.20;;;;;;5093998;28;20335;-66
2023/05/25 12:18:52;;;;;;;;;;;16.20;81.00;;;;;;5094135;28;19908;-66
2023/05/25 12:21:22;;;;;;;;;;;16.20;80.70;;;;;;5110653;28;19908;-67
2023/05/25 12:23:49;;;;;;;;;;;16.20;80.90;;;;;;5114490;28;19912;-67
2023/05/25 12:26:17;;;;;;;;;;;16.20;81.50;;;;;;5112666;28;20002;-67
2023/05/25 12:29:00;;;;;;;;;;;16.10;81.30;;;;;;5099824;28;19923;-66
2023/05/25 12:31:27;;;;;;;;;;;16.10;81.40;;;;;;5107284;28;19916;-66
2023/05/25 12:34:05;;;;;;;;;;;16.10;81.30;;;;;;5113114;28;19998;-67
2023/05/25 12:36:42;;;;;;;;;;;16.20;81.50;;;;;;5114204;28;19911;-65
2023/05/25 12:39:10;;;;;;;;;;;16.10;81.30;;;;;;5113109;28;19968;-65
2023/05/25 12:41:47;;;;;;;;;;;16.10;81.60;;;;;;5093147;28;19952;-65
2023/05/25 12:44:17;;;;;;;;;;;16.10;81.40;;;;;;5093738;28;20380;-66
2023/05/25 12:46:44;;;;;;;;;;;16.20;81.90;;;;;;5099476;28;20388;-68
2023/05/25 12:49:30;;;;;;;;;;;16.20;81.40;;;;;;5112764;28;19954;-67
2023/05/25 12:51:58;;;;;;;;;;;16.20;81.50;;;;;;5113627;28;19999;-67
2023/05/25 12:54:45;;;;;;;;;;;16.20;80.90;;;;;;5112069;28;20360;-64
2023/05/25 12:57:13;;;;;;;;;;;16.20;81.10;;;;;;5113451;28;19981;-65
2023/05/25 12:59:55;;;;;;;;;;;16.20;81.20;;;;;;5095705;28;19915;-66
2023/05/25 13:02:22;;;;;;;;;;;16.30;80.70;;;;;;5113976;28;20011;-67
2023/05/25 13:04:48;;;;;;;;;;;16.30;80.90;;;;;;5113601;28;19907;-67
2023/05/25 13:07:15;;;;;;;;;;;16.30;80.60;;;;;;5113652;28;20322;-67
2023/05/25 13:09:42;;;;;;;;;;;16.30;81.00;;;;;;5113567;28;19912;-67
2023/05/25 13:12:08;;;;;;;;;;;16.20;80.90;;;;;;5113341;28;19939;-66
2023/05/25 13:14:35;;;;;;;;;;;16.30;81.10;;;;;;5113176;28;19934;-66
2023/05/25 13:17:02;;;;;;;;;;;16.30;80.90;;;;;;5112697;28;20015;-67
2023/05/25 13:19:28;;;;;;;;;;;16.30;81.30;;;;;;5075279;28;19995;-66
2023/05/25 13:21:55;;;;;;;;;;;16.30;81.60;;;;;;5093837;28;19908;-67
2023/05/25 13:24:22;;;;;;;;;;;16.20;81.70;;;;;;5093210;28;19908;-67
2023/05/25 13:26:49;;;;;;;;;;;16.20;81.50;;;;;;5092628;28;20332;-67
2023/05/25 13:29:15;;;;;;;;;;;16.20;81.50;;;;;;5092947;28;19962;-66
2023/05/25 13:31:42;;;;;;;;;;;16.10;82.00;;;;;;5092766;28;20017;-67
2023/05/25 13:34:09;;;;;;;;;;;16.10;82.00;;;;;;5094000;28;19912;-67
2023/05/25 13:36:35;;;;;;;;;;;16.10;82.00;;;;;;5092886;28;19951;-67
2023/05/25 13:39:04;;;;;;;;;;;16.00;82.30;;;;;;5092691;28;19908;-66
2023/05/25 13:41:30;;;;;;;;;;;16.00;82.50;;;;;;5092131;28;19927;-67
2023/05/25 13:43:57;;;;;;;;;;;15.90;82.20;;;;;;5091351;28;19915;-64
2023/05/25 13:46:23;;;;;;;;;;;15.90;82.10;;;;;;5092128;28;19993;-65
2023/05/25 13:48:50;;;;;;;;;;;16.00;82.40;;;;;;5092286;28;19935;-66
2023/05/25 13:51:17;;;;;;;;;;;15.90;82.20;;;;;;5092442;28;19935;-65
2023/05/25 13:53:43;;;;;;;;;;;15.90;82.30;;;;;;5101380;28;19923;-65
2023/05/25 13:56:10;;;;;;;;;;;15.80;82.20;;;;;;5113141;28;19994;-65
2023/05/25 13:58:37;;;;;;;;;;;15.80;82.50;;;;;;5112381;28;20050;-66
2023/05/25 14:01:04;;;;;;;;;;;15.80;82.20;;;;;;5110113;28;19915;-66
2023/05/25 14:03:31;;;;;;;;;;;15.70;82.10;;;;;;5112453;28;20029;-68
2023/05/25 14:05:58;;;;;;;;;;;15.70;82.60;;;;;;5075023;28;19912;-68
2023/05/25 14:08:25;;;;;;;;;;;15.70;82.50;;;;;;5092199;28;19923;-65
2023/05/25 14:10:51;;;;;;;;;;;15.60;83.00;;;;;;5105374;28;19911;-64
2023/05/25 14:13:18;;;;;;;;;;;15.60;82.90;;;;;;5112647;28;19908;-65
2023/05/25 14:15:44;;;;;;;;;;;15.60;83.30;;;;;;5112392;28;19904;-67
2023/05/25 14:18:11;;;;;;;;;;;15.60;83.20;;;;;;5112640;28;19955;-67
2023/05/25 14:20:39;;;;;;;;;;;15.60;83.60;;;;;;5104145;28;19919;-67
2023/05/25 14:23:06;;;;;;;;;;;15.70;82.70;;;;;;5112388;28;20318;-67